Time;durP1;ratioP1;P1;durP2;ratioP2;P2;SDS_P1;SDS_P2;PMS_P1;PMS_P2;Temp;Humidity;BMP_temperature;BMP_pressure;BME280_temperature;BME280_humidity;BME280_pressure;Samples;Min_cycle;Max_cycle;Signal;HPM_P1;HPM_P2
2023/11/16 00:02:06;;;;;;;9.95;2.40;;;10.10;99.90;;;;;;5009967;28;20719;-76
2023/11/16 00:04:35;;;;;;;13.52;2.25;;;10.10;99.90;;;;;;5027566;28;20430;-77
2023/11/16 00:07:03;;;;;;;12.95;2.70;;;10.10;99.90;;;;;;5009792;28;20135;-77
2023/11/16 00:09:28;;;;;;;9.10;2.33;;;10.10;99.90;;;;;;5016293;28;20507;-77
2023/11/16 00:11:54;;;;;;;12.77;2.33;;;10.10;99.90;;;;;;5021771;28;20037;-77
2023/11/16 00:14:20;;;;;;;14.82;2.33;;;10.10;99.90;;;;;;5017350;28;20071;-77
2023/11/16 00:16:46;;;;;;;13.43;2.40;;;10.10;99.90;;;;;;5025778;28;20036;-77
2023/11/16 00:19:12;;;;;;;9.43;2.20;;;10.10;99.90;;;;;;5015168;28;20067;-77
2023/11/16 00:21:37;;;;;;;9.88;2.35;;;10.10;99.90;;;;;;4996154;28;20029;-77
2023/11/16 00:24:11;;;;;;;11.60;2.50;;;10.10;99.90;;;;;;5027236;28;20010;-77
2023/11/16 00:26:36;;;;;;;11.48;2.67;;;10.10;99.90;;;;;;5027018;28;20163;-77
2023/11/16 00:29:02;;;;;;;11.90;2.58;;;10.10;99.90;;;;;;5027491;28;20134;-76
2023/11/16 00:31:30;;;;;;;8.77;2.00;;;10.10;99.90;;;;;;5026838;28;20026;-77
2023/11/16 00:33:57;;;;;;;12.02;1.98;;;10.10;99.90;;;;;;5027425;28;20037;-76
2023/11/16 00:36:23;;;;;;;13.80;2.78;;;10.10;99.90;;;;;;5027110;28;20501;-77
2023/11/16 00:38:50;;;;;;;11.85;2.40;;;10.10;99.90;;;;;;5026837;28;20025;-76
2023/11/16 00:41:16;;;;;;;13.13;2.70;;;10.10;99.90;;;;;;5026928;28;20021;-77
2023/11/16 00:43:43;;;;;;;9.90;2.17;;;10.10;99.90;;;;;;5026861;28;20495;-77
2023/11/16 00:46:11;;;;;;;13.15;2.45;;;10.10;99.90;;;;;;5026888;28;20436;-76
2023/11/16 00:48:39;;;;;;;14.15;2.67;;;10.10;99.90;;;;;;5009290;28;20017;-76
2023/11/16 00:51:06;;;;;;;10.48;2.63;;;10.10;99.90;;;;;;5023090;28;20092;-77
2023/11/16 00:53:32;;;;;;;12.52;2.20;;;10.10;99.90;;;;;;5016950;28;20029;-76
2023/11/16 00:55:58;;;;;;;12.52;2.25;;;10.10;99.90;;;;;;5026899;28;20021;-77
2023/11/16 00:58:25;;;;;;;15.63;2.60;;;10.10;99.90;;;;;;5026858;28;20037;-77
2023/11/16 01:00:51;;;;;;;10.70;2.47;;;10.10;99.90;;;;;;5026745;28;20025;-76
2023/11/16 01:03:20;;;;;;;11.30;2.20;;;10.10;99.90;;;;;;5009411;28;20052;-76
2023/11/16 01:05:46;;;;;;;11.00;2.08;;;10.10;99.90;;;;;;5008971;28;20087;-76
2023/11/16 01:08:12;;;;;;;22.90;2.92;;;10.00;99.90;;;;;;5026833;28;20029;-76
2023/11/16 01:10:42;;;;;;;9.32;2.05;;;10.00;99.90;;;;;;5026368;28;20026;-77
2023/11/16 01:13:10;;;;;;;10.48;2.25;;;10.00;99.90;;;;;;5009054;28;20060;-77
2023/11/16 01:15:38;;;;;;;8.77;2.15;;;10.00;99.90;;;;;;5008669;28;20041;-77
2023/11/16 01:18:12;;;;;;;11.43;2.15;;;10.00;99.90;;;;;;5026480;28;20136;-77
2023/11/16 01:20:42;;;;;;;20.08;3.33;;;10.00;99.90;;;;;;5008177;28;20061;-77
2023/11/16 01:23:12;;;;;;;13.38;2.50;;;9.90;99.90;;;;;;5026880;28;20021;-77
2023/11/16 01:25:44;;;;;;;10.63;3.03;;;9.90;99.90;;;;;;5004084;28;20485;-77
2023/11/16 01:28:15;;;;;;;13.50;2.40;;;9.80;99.90;;;;;;5018065;28;20036;-77
2023/11/16 01:30:40;;;;;;;9.85;2.60;;;9.80;99.90;;;;;;5008325;28;20036;-77
2023/11/16 01:33:08;;;;;;;17.55;2.95;;;9.70;99.90;;;;;;5026605;28;20025;-77
2023/11/16 01:35:36;;;;;;;15.55;3.03;;;9.70;99.90;;;;;;5026156;28;20148;-76
2023/11/16 01:38:05;;;;;;;18.95;3.35;;;9.70;99.90;;;;;;5008601;28;20037;-76
2023/11/16 01:40:32;;;;;;;17.55;4.15;;;9.60;99.90;;;;;;5026169;28;20548;-76
2023/11/16 01:42:57;;;;;;;13.18;2.35;;;9.60;99.90;;;;;;5019422;28;20116;-76
2023/11/16 01:45:34;;;;;;;11.95;2.28;;;9.60;99.90;;;;;;5006412;28;20101;-76
2023/11/16 01:48:03;;;;;;;11.45;2.58;;;9.60;99.90;;;;;;5013220;28;20441;-76
2023/11/16 01:50:31;;;;;;;14.63;2.53;;;9.60;99.90;;;;;;5028545;28;20022;-75
2023/11/16 01:53:04;;;;;;;18.27;3.25;;;9.60;99.90;;;;;;5030140;28;20036;-74
2023/11/16 01:55:35;;;;;;;12.02;2.35;;;9.60;99.90;;;;;;5030104;28;20033;-73
2023/11/16 01:58:05;;;;;;;10.88;2.45;;;9.60;99.90;;;;;;5012447;28;20479;-73
2023/11/16 02:00:36;;;;;;;13.93;2.92;;;9.60;99.90;;;;;;5029210;28;20029;-73
2023/11/16 02:03:04;;;;;;;14.05;2.70;;;9.50;99.90;;;;;;5030368;28;20394;-74
2023/11/16 02:05:34;;;;;;;15.20;2.83;;;9.50;99.90;;;;;;5030002;28;20519;-74
2023/11/16 02:08:08;;;;;;;15.15;3.13;;;9.50;99.90;;;;;;5030322;28;20028;-74
2023/11/16 02:10:35;;;;;;;12.52;2.63;;;9.50;99.90;;;;;;5029916;28;20033;-74
2023/11/16 02:13:03;;;;;;;14.30;3.30;;;9.50;99.90;;;;;;5012099;28;20057;-74
2023/11/16 02:15:31;;;;;;;11.77;2.95;;;9.50;99.90;;;;;;5029920;28;20057;-73
2023/11/16 02:17:58;;;;;;;13.93;2.85;;;9.40;99.90;;;;;;5011676;28;20411;-74
2023/11/16 02:20:25;;;;;;;12.25;3.40;;;9.40;99.90;;;;;;5029709;28;20009;-74
2023/11/16 02:22:55;;;;;;;12.32;3.13;;;9.40;99.90;;;;;;5029926;28;20013;-74
2023/11/16 02:25:21;;;;;;;15.85;3.65;;;9.40;99.90;;;;;;5029555;28;20038;-74
2023/11/16 02:27:47;;;;;;;14.50;3.13;;;9.40;99.90;;;;;;5030021;28;20072;-74
2023/11/16 02:30:13;;;;;;;15.75;3.75;;;9.40;99.90;;;;;;5029939;28;20029;-74
2023/11/16 02:32:39;;;;;;;13.13;3.20;;;9.40;99.90;;;;;;5029219;28;20491;-73
2023/11/16 02:35:05;;;;;;;14.02;3.45;;;9.40;99.90;;;;;;5029640;28;20596;-74
2023/11/16 02:37:31;;;;;;;17.08;3.60;;;9.40;99.90;;;;;;5028762;28;20037;-73
2023/11/16 02:39:58;;;;;;;18.88;3.67;;;9.40;99.90;;;;;;5029384;28;20045;-73
2023/11/16 02:42:24;;;;;;;16.77;4.05;;;9.40;99.90;;;;;;5029202;28;20110;-73
2023/11/16 02:44:52;;;;;;;16.70;3.65;;;9.40;99.90;;;;;;5021357;28;20060;-74
2023/11/16 02:47:17;;;;;;;21.30;3.90;;;9.40;99.90;;;;;;5023804;28;20026;-74
2023/11/16 02:49:43;;;;;;;15.07;3.50;;;9.40;99.90;;;;;;5029301;28;20028;-74
2023/11/16 02:52:12;;;;;;;13.00;3.53;;;9.40;99.90;;;;;;5028958;28;20060;-74
2023/11/16 02:54:38;;;;;;;15.90;4.15;;;9.40;99.90;;;;;;5029260;28;20021;-74
2023/11/16 02:57:09;;;;;;;11.70;3.10;;;9.40;99.90;;;;;;5010897;28;20482;-74
2023/11/16 02:59:35;;;;;;;16.80;3.83;;;9.40;99.90;;;;;;5029258;28;20021;-75
2023/11/16 03:02:06;;;;;;;15.07;3.20;;;9.40;99.90;;;;;;5028542;28;20021;-74
2023/11/16 03:04:32;;;;;;;16.42;3.28;;;9.40;99.90;;;;;;5026506;28;20087;-74
2023/11/16 03:06:58;;;;;;;15.63;3.85;;;9.40;99.90;;;;;;5027414;28;20785;-74
2023/11/16 03:09:23;;;;;;;17.50;3.42;;;9.40;99.90;;;;;;5028622;28;20028;-74
2023/11/16 03:11:49;;;;;;;12.68;3.92;;;9.40;99.90;;;;;;5028594;28;20029;-74
2023/11/16 03:14:15;;;;;;;10.15;3.22;;;9.40;99.90;;;;;;5001952;28;20395;-74
2023/11/16 03:16:49;;;;;;;8.07;2.95;;;9.40;99.90;;;;;;5023673;28;20120;-75
2023/11/16 03:19:16;;;;;;;11.48;3.60;;;9.50;99.90;;;;;;5028637;28;20392;-75
2023/11/16 03:21:42;;;;;;;15.55;3.38;;;9.50;99.90;;;;;;5028326;28;20021;-75
2023/11/16 03:24:09;;;;;;;18.00;3.78;;;9.50;99.90;;;;;;5028807;28;20036;-74
2023/11/16 03:26:35;;;;;;;16.48;4.63;;;9.50;99.90;;;;;;5028372;28;20105;-74
2023/11/16 03:29:01;;;;;;;19.25;5.03;;;9.50;99.90;;;;;;5028586;28;20538;-74
2023/11/16 03:31:26;;;;;;;13.88;4.70;;;9.50;99.90;;;;;;5028494;28;20038;-74
2023/11/16 03:33:52;;;;;;;15.63;5.65;;;9.50;99.90;;;;;;5010832;28;20021;-74
2023/11/16 03:36:18;;;;;;;13.30;4.82;;;9.50;99.90;;;;;;5028550;28;20049;-74
2023/11/16 03:38:46;;;;;;;15.23;5.53;;;9.40;99.90;;;;;;5010369;28;20117;-75
2023/11/16 03:41:12;;;;;;;21.65;6.20;;;9.40;99.90;;;;;;5028081;28;20025;-75
2023/11/16 03:43:38;;;;;;;18.33;5.80;;;9.40;99.90;;;;;;5028148;28;20498;-75
2023/11/16 03:46:08;;;;;;;19.77;5.97;;;9.40;99.90;;;;;;5036585;28;20033;-74
2023/11/16 03:48:34;;;;;;;16.05;5.80;;;9.40;99.90;;;;;;5031925;28;20033;-74
2023/11/16 03:51:01;;;;;;;10.90;5.38;;;9.30;99.90;;;;;;5019561;28;20082;-75
2023/11/16 03:53:27;;;;;;;14.38;5.45;;;9.30;99.90;;;;;;5027837;28;20479;-74
2023/11/16 03:55:53;;;;;;;12.70;4.70;;;9.30;99.90;;;;;;5036262;28;20036;-75
2023/11/16 03:58:19;;;;;;;19.63;5.15;;;9.40;99.90;;;;;;5016065;28;20067;-74
2023/11/16 04:00:45;;;;;;;15.32;5.18;;;9.40;99.90;;;;;;5027754;28;20033;-75
2023/11/16 04:03:11;;;;;;;12.82;5.13;;;9.40;99.90;;;;;;5035555;28;20018;-74
2023/11/16 04:05:37;;;;;;;16.40;4.90;;;9.30;99.90;;;;;;5020136;28;20032;-74
2023/11/16 04:08:05;;;;;;;16.73;5.13;;;9.30;99.90;;;;;;5041165;28;20094;-74
2023/11/16 04:10:31;;;;;;;15.52;4.88;;;9.40;99.90;;;;;;5013977;28;20128;-74
2023/11/16 04:12:56;;;;;;;11.55;4.22;;;9.30;99.90;;;;;;5038783;28;20553;-75
2023/11/16 04:15:22;;;;;;;17.15;4.75;;;9.30;99.90;;;;;;5019545;28;20499;-74
2023/11/16 04:17:48;;;;;;;9.85;4.32;;;9.40;99.90;;;;;;5019476;28;20056;-74
2023/11/16 04:20:14;;;;;;;14.35;4.63;;;9.30;99.90;;;;;;5029430;28;20046;-74
2023/11/16 04:22:40;;;;;;;14.07;4.07;;;9.30;99.90;;;;;;5031216;28;20060;-75
2023/11/16 04:25:17;;;;;;;11.95;4.47;;;9.30;99.90;;;;;;5035506;28;20021;-75
2023/11/16 04:27:42;;;;;;;14.00;4.75;;;9.30;99.90;;;;;;5014803;28;20426;-75
2023/11/16 04:30:09;;;;;;;13.85;5.78;;;9.30;99.90;;;;;;5014262;28;20033;-74
2023/11/16 04:32:34;;;;;;;13.27;5.20;;;9.30;99.90;;;;;;5031963;28;20040;-74
2023/11/16 04:35:00;;;;;;;13.02;4.75;;;9.30;99.90;;;;;;5024625;28;20027;-75
2023/11/16 04:37:26;;;;;;;12.73;4.97;;;9.20;99.90;;;;;;5035030;28;20117;-74
2023/11/16 04:39:51;;;;;;;15.82;5.40;;;9.20;99.90;;;;;;5017080;28;20021;-75
2023/11/16 04:42:17;;;;;;;13.85;4.93;;;9.20;99.90;;;;;;5028005;28;20032;-74
2023/11/16 04:44:44;;;;;;;13.15;5.07;;;9.20;99.90;;;;;;5021714;28;20479;-75
2023/11/16 04:47:10;;;;;;;19.27;4.78;;;9.10;99.90;;;;;;5027120;28;20030;-75
2023/11/16 04:49:37;;;;;;;11.55;5.53;;;9.00;99.90;;;;;;5035540;28;20036;-74
2023/11/16 04:52:03;;;;;;;15.50;4.97;;;9.00;99.90;;;;;;5030369;28;20032;-74
2023/11/16 04:54:29;;;;;;;17.52;5.90;;;9.00;99.90;;;;;;5019030;28;20020;-75
2023/11/16 04:56:54;;;;;;;12.02;4.97;;;8.90;99.90;;;;;;5027345;28;20021;-75
2023/11/16 04:59:20;;;;;;;9.10;4.60;;;8.90;99.90;;;;;;5022709;28;20053;-74
2023/11/16 05:01:46;;;;;;;15.00;4.90;;;8.90;99.90;;;;;;5034382;28;20551;-75
2023/11/16 05:04:12;;;;;;;13.27;5.35;;;8.90;99.90;;;;;;5019747;28;20104;-75
2023/11/16 05:06:41;;;;;;;20.55;5.10;;;8.90;99.90;;;;;;5010486;28;20025;-75
2023/11/16 05:09:07;;;;;;;15.40;4.80;;;8.90;99.90;;;;;;5020585;28;20040;-75
2023/11/16 05:11:32;;;;;;;18.08;5.07;;;8.90;99.90;;;;;;5026734;28;20021;-75
2023/11/16 05:13:58;;;;;;;23.83;6.43;;;8.90;99.90;;;;;;5034051;28;20554;-74
2023/11/16 05:16:26;;;;;;;13.63;5.20;;;8.90;99.90;;;;;;5031310;28;20029;-75
2023/11/16 05:18:53;;;;;;;17.88;5.72;;;8.90;99.90;;;;;;5018680;28;20021;-75
2023/11/16 05:21:18;;;;;;;16.40;5.28;;;8.90;99.90;;;;;;5025012;28;20026;-75
2023/11/16 05:23:45;;;;;;;14.80;5.20;;;8.90;99.90;;;;;;5037335;28;20398;-75
2023/11/16 05:26:10;;;;;;;10.23;4.78;;;8.90;99.90;;;;;;5025685;28;20042;-75
2023/11/16 05:28:36;;;;;;;19.88;4.47;;;8.90;99.90;;;;;;5027543;28;20668;-75
2023/11/16 05:31:04;;;;;;;18.95;5.13;;;8.90;99.90;;;;;;5033222;28;20264;-75
2023/11/16 05:33:32;;;;;;;19.00;5.15;;;8.90;99.90;;;;;;5033041;28;20478;-75
2023/11/16 05:35:59;;;;;;;13.63;5.22;;;8.90;99.90;;;;;;5013437;28;20478;-74
2023/11/16 05:38:25;;;;;;;12.85;4.40;;;8.90;99.90;;;;;;5014586;28;20117;-74
2023/11/16 05:40:51;;;;;;;15.13;5.20;;;8.90;99.90;;;;;;5027703;28;20714;-75
2023/11/16 05:43:17;;;;;;;18.40;5.50;;;8.90;99.90;;;;;;5036416;28;20037;-74
2023/11/16 05:45:43;;;;;;;16.90;4.70;;;8.90;99.90;;;;;;5008579;28;20076;-74
2023/11/16 05:48:09;;;;;;;17.95;5.43;;;8.90;99.90;;;;;;5026283;28;20026;-74
2023/11/16 05:50:38;;;;;;;13.93;4.90;;;8.90;99.90;;;;;;5039870;28;20491;-75
2023/11/16 05:53:04;;;;;;;19.65;4.97;;;8.90;99.90;;;;;;5012556;28;20021;-74
2023/11/16 05:55:33;;;;;;;16.92;4.85;;;8.90;99.90;;;;;;5026373;28;20516;-74
2023/11/16 05:57:58;;;;;;;15.50;5.45;;;8.90;99.90;;;;;;5018440;28;20732;-74
2023/11/16 06:00:24;;;;;;;17.60;5.32;;;8.80;99.90;;;;;;5036911;28;20053;-74
2023/11/16 06:02:50;;;;;;;20.95;5.75;;;8.80;99.90;;;;;;5017896;28;20045;-74
2023/11/16 06:05:15;;;;;;;12.48;4.82;;;8.80;99.90;;;;;;5038899;28;20478;-74
2023/11/16 06:07:41;;;;;;;14.15;4.97;;;8.70;99.90;;;;;;5035185;28;20029;-74
2023/11/16 06:10:10;;;;;;;15.40;5.28;;;8.80;99.90;;;;;;5028849;28;20113;-74
2023/11/16 06:12:38;;;;;;;13.70;5.32;;;8.70;99.90;;;;;;5027737;28;20468;-74
2023/11/16 06:15:07;;;;;;;14.65;4.82;;;8.70;99.90;;;;;;5008582;28;20032;-74
2023/11/16 06:17:33;;;;;;;16.70;5.57;;;8.70;99.90;;;;;;5033371;28;20029;-75
2023/11/16 06:19:59;;;;;;;15.70;5.50;;;8.70;99.90;;;;;;5018946;28;20851;-74
2023/11/16 06:22:24;;;;;;;14.10;5.32;;;8.60;99.90;;;;;;5034070;28;20024;-74
2023/11/16 06:24:50;;;;;;;15.05;5.95;;;8.70;99.90;;;;;;5029969;28;20059;-74
2023/11/16 06:27:16;;;;;;;18.10;5.93;;;8.60;99.90;;;;;;5017766;28;20021;-74
2023/11/16 06:29:42;;;;;;;16.23;6.20;;;8.70;99.90;;;;;;5037673;28;20390;-74
2023/11/16 06:32:08;;;;;;;13.90;5.53;;;8.70;99.90;;;;;;5011778;28;20029;-74
2023/11/16 06:34:34;;;;;;;18.50;6.20;;;8.70;99.90;;;;;;5033724;28;20036;-74
2023/11/16 06:37:00;;;;;;;12.25;5.47;;;8.70;99.90;;;;;;5034675;28;20025;-74
2023/11/16 06:39:26;;;;;;;17.20;6.10;;;8.70;99.90;;;;;;5015745;28;20026;-75
2023/11/16 06:41:52;;;;;;;16.40;6.35;;;8.70;99.90;;;;;;5011622;28;20030;-75
2023/11/16 06:44:19;;;;;;;16.90;6.32;;;8.70;99.90;;;;;;5029051;28;20034;-74
2023/11/16 06:46:45;;;;;;;19.95;6.60;;;8.70;99.90;;;;;;5028692;28;20026;-74
2023/11/16 06:49:11;;;;;;;19.77;6.93;;;8.70;99.90;;;;;;5029515;28;20040;-74
2023/11/16 06:51:37;;;;;;;14.50;6.70;;;8.70;99.90;;;;;;5029198;28;20124;-75
2023/11/16 06:54:05;;;;;;;14.68;5.95;;;8.80;99.90;;;;;;5026758;28;20028;-73
2023/11/16 06:56:33;;;;;;;13.48;6.15;;;8.70;99.90;;;;;;5029234;28;20029;-74
2023/11/16 06:59:00;;;;;;;19.73;7.40;;;8.80;99.90;;;;;;5014645;28;20033;-74
2023/11/16 07:01:29;;;;;;;16.63;6.30;;;8.80;99.90;;;;;;5016787;28;20121;-74
2023/11/16 07:03:55;;;;;;;19.17;6.88;;;8.70;99.90;;;;;;5028925;28;20030;-74
2023/11/16 07:06:21;;;;;;;14.90;5.30;;;8.70;99.90;;;;;;5028424;28;20052;-74
2023/11/16 07:08:47;;;;;;;19.30;6.72;;;8.70;99.90;;;;;;5027352;28;20060;-74
2023/11/16 07:11:12;;;;;;;14.68;6.30;;;8.70;99.90;;;;;;5023157;28;20104;-74
2023/11/16 07:13:38;;;;;;;19.10;6.93;;;8.60;99.90;;;;;;5025770;28;20026;-74
2023/11/16 07:16:04;;;;;;;14.82;6.25;;;8.60;99.90;;;;;;5028858;28;20060;-74
2023/11/16 07:18:30;;;;;;;12.30;6.53;;;8.60;99.90;;;;;;5017284;28;20057;-73
2023/11/16 07:20:58;;;;;;;15.60;6.07;;;8.60;99.90;;;;;;5010865;28;20061;-74
2023/11/16 07:23:24;;;;;;;14.63;5.93;;;8.60;99.90;;;;;;5009514;28;20026;-73
2023/11/16 07:25:49;;;;;;;15.65;6.35;;;8.60;99.90;;;;;;5023015;28;20030;-74
2023/11/16 07:28:15;;;;;;;17.63;7.65;;;8.50;99.90;;;;;;5020235;28;20045;-74
2023/11/16 07:30:45;;;;;;;11.23;6.35;;;8.50;99.90;;;;;;5016133;28;20049;-74
2023/11/16 07:33:11;;;;;;;17.05;6.38;;;8.50;99.90;;;;;;5027871;28;20469;-74
2023/11/16 07:35:37;;;;;;;16.23;7.00;;;8.50;99.90;;;;;;5028532;28;20545;-74
2023/11/16 07:38:04;;;;;;;12.40;6.90;;;8.50;99.90;;;;;;5010313;28;20057;-74
2023/11/16 07:40:29;;;;;;;19.45;7.90;;;8.40;99.90;;;;;;5027832;28;20049;-74
2023/11/16 07:42:55;;;;;;;13.98;7.38;;;8.40;99.90;;;;;;5015151;28;20111;-74
2023/11/16 07:45:21;;;;;;;12.02;6.30;;;8.40;99.90;;;;;;5025243;28;20467;-74
2023/11/16 07:47:47;;;;;;;14.10;6.70;;;8.40;99.90;;;;;;5026891;28;20025;-75
2023/11/16 07:50:14;;;;;;;10.73;6.30;;;8.40;99.90;;;;;;5027934;28;20487;-74
2023/11/16 07:52:44;;;;;;;13.27;6.80;;;8.40;99.90;;;;;;5009915;28;20040;-74
2023/11/16 07:55:16;;;;;;;18.23;7.47;;;8.40;99.90;;;;;;5028209;28;20021;-74
2023/11/16 07:57:47;;;;;;;17.40;7.53;;;8.40;99.90;;;;;;5016515;28;20030;-75
2023/11/16 08:00:25;;;;;;;15.20;7.75;;;8.40;99.90;;;;;;5004720;28;20119;-75
2023/11/16 08:05:37;;;;;;;12.82;7.25;;;8.40;99.90;;;;;;5019403;28;20044;-75
2023/11/16 08:08:04;;;;;;;22.45;8.80;;;8.50;99.90;;;;;;5027307;28;20017;-74
2023/11/16 08:10:30;;;;;;;19.80;8.82;;;8.50;99.90;;;;;;5027526;28;20026;-75
2023/11/16 08:12:56;;;;;;;15.88;7.28;;;8.50;99.90;;;;;;5027123;28;20032;-74
2023/11/16 08:15:25;;;;;;;19.45;8.40;;;8.50;99.90;;;;;;5024371;28;20033;-75
2023/11/16 08:17:53;;;;;;;16.65;7.68;;;8.50;99.90;;;;;;5017780;28;20022;-74
2023/11/16 08:20:23;;;;;;;20.02;8.30;;;8.60;99.90;;;;;;5024828;28;20032;-74
2023/11/16 08:22:51;;;;;;;15.95;8.57;;;8.60;99.90;;;;;;5016316;28;20025;-74
2023/11/16 08:25:21;;;;;;;17.70;8.43;;;8.70;99.90;;;;;;5024466;28;20044;-74
2023/11/16 08:27:49;;;;;;;15.02;8.07;;;8.60;99.90;;;;;;5019980;28;20033;-74
2023/11/16 08:30:16;;;;;;;14.30;7.65;;;8.70;99.90;;;;;;5019480;28;20045;-74
2023/11/16 08:32:42;;;;;;;20.17;8.95;;;8.70;99.90;;;;;;5019337;28;20240;-74
2023/11/16 08:35:08;;;;;;;15.35;7.10;;;8.70;99.90;;;;;;5025851;28;20032;-74
2023/11/16 08:37:34;;;;;;;16.67;8.07;;;8.70;99.90;;;;;;5025032;28;20544;-73
2023/11/16 08:40:00;;;;;;;16.42;8.63;;;8.80;99.90;;;;;;5018537;28;20026;-74
2023/11/16 08:42:25;;;;;;;14.32;7.68;;;8.80;99.90;;;;;;5021819;28;20029;-74
2023/11/16 08:44:52;;;;;;;21.92;8.82;;;8.80;99.90;;;;;;5018452;28;20500;-74
2023/11/16 08:47:18;;;;;;;16.08;8.77;;;8.80;99.90;;;;;;5019432;28;20029;-74
2023/11/16 08:49:47;;;;;;;23.27;9.45;;;8.80;99.90;;;;;;5024775;28;20025;-74
2023/11/16 08:52:14;;;;;;;18.17;8.48;;;8.80;99.90;;;;;;5008835;28;20063;-74
2023/11/16 08:54:41;;;;;;;17.35;8.98;;;8.90;99.90;;;;;;5026794;28;20077;-74
2023/11/16 08:57:08;;;;;;;20.38;9.57;;;8.90;99.90;;;;;;5025138;28;20025;-74
2023/11/16 08:59:35;;;;;;;20.70;10.35;;;8.90;99.90;;;;;;5026351;28;20502;-75
2023/11/16 09:02:02;;;;;;;17.13;9.80;;;8.90;99.90;;;;;;5026632;28;20030;-75
2023/11/16 09:04:28;;;;;;;18.33;10.38;;;8.90;99.90;;;;;;5009164;28;20021;-75
2023/11/16 09:06:54;;;;;;;17.92;9.30;;;8.90;99.90;;;;;;5019601;28;20108;-75
2023/11/16 09:09:38;;;;;;;22.27;10.80;;;8.90;99.90;;;;;;5026623;28;20117;-74
2023/11/16 09:12:12;;;;;;;17.45;9.95;;;8.90;99.90;;;;;;5026896;28;20024;-74
2023/11/16 09:14:40;;;;;;;26.42;10.73;;;9.00;99.90;;;;;;5026913;28;20041;-74
2023/11/16 09:17:16;;;;;;;19.27;10.00;;;9.00;99.90;;;;;;5023470;28;20025;-74
2023/11/16 09:19:43;;;;;;;16.77;9.38;;;9.00;99.90;;;;;;5021050;28;20026;-74
2023/11/16 09:22:09;;;;;;;17.35;9.27;;;9.00;99.90;;;;;;5023894;28;20029;-75
2023/11/16 09:24:37;;;;;;;16.77;9.48;;;9.00;99.90;;;;;;5026784;28;20049;-74
2023/11/16 09:27:04;;;;;;;22.70;11.10;;;9.00;99.90;;;;;;5026218;28;20482;-74
2023/11/16 09:29:30;;;;;;;20.10;10.00;;;9.10;99.90;;;;;;5008041;28;20478;-74
2023/11/16 09:31:56;;;;;;;19.58;10.38;;;9.10;99.90;;;;;;5005513;28;20030;-75
2023/11/16 09:34:22;;;;;;;22.70;11.80;;;9.10;99.90;;;;;;5026384;28;20871;-74
2023/11/16 09:36:50;;;;;;;26.95;12.45;;;9.10;99.90;;;;;;5026683;28;20108;-74
2023/11/16 09:39:16;;;;;;;27.70;13.23;;;9.20;99.90;;;;;;5021492;28;20014;-75
2023/11/16 09:41:49;;;;;;;21.67;11.10;;;9.10;99.90;;;;;;5015457;28;20029;-74
2023/11/16 09:44:17;;;;;;;23.63;11.93;;;9.10;99.90;;;;;;5024834;28;20034;-75
2023/11/16 09:46:47;;;;;;;23.48;11.27;;;9.10;99.90;;;;;;5024697;28;20559;-74
2023/11/16 09:49:16;;;;;;;27.58;12.57;;;9.20;99.90;;;;;;5010930;28;20029;-74
2023/11/16 09:51:44;;;;;;;24.85;13.55;;;9.20;99.90;;;;;;5024964;28;20022;-75
2023/11/16 09:54:11;;;;;;;28.15;15.23;;;9.20;99.90;;;;;;5024990;28;20033;-74
2023/11/16 09:56:40;;;;;;;27.60;13.50;;;9.20;99.90;;;;;;5018879;28;20073;-74
2023/11/16 09:59:13;;;;;;;31.40;14.32;;;9.20;99.90;;;;;;5019926;28;20392;-75
2023/11/16 10:01:45;;;;;;;27.00;13.98;;;9.20;99.90;;;;;;5013329;28;20014;-75
2023/11/16 10:04:13;;;;;;;31.48;13.82;;;9.30;99.90;;;;;;5026501;28;20025;-75
2023/11/16 10:06:42;;;;;;;35.13;16.58;;;9.30;99.90;;;;;;5026259;28;20079;-74
2023/11/16 10:09:14;;;;;;;27.45;14.40;;;9.30;99.90;;;;;;5025850;28;20463;-74
2023/11/16 10:11:41;;;;;;;27.08;13.88;;;9.30;99.90;;;;;;5028734;28;20248;-75
2023/11/16 10:14:07;;;;;;;35.97;15.35;;;9.30;99.90;;;;;;5030298;28;20025;-74
2023/11/16 10:16:33;;;;;;;29.42;15.38;;;9.30;99.90;;;;;;5029887;28;20036;-75
2023/11/16 10:19:06;;;;;;;30.30;15.52;;;9.30;99.90;;;;;;5024113;28;20022;-75
2023/11/16 10:21:39;;;;;;;31.38;15.48;;;9.30;99.90;;;;;;5022778;28;20033;-75
2023/11/16 10:24:09;;;;;;;27.65;15.18;;;9.40;99.90;;;;;;5010280;28;20041;-74
2023/11/16 10:26:35;;;;;;;25.92;15.45;;;9.30;99.90;;;;;;5021958;28;20021;-74
2023/11/16 10:29:00;;;;;;;25.98;14.75;;;9.40;99.90;;;;;;5029056;28;20399;-74
2023/11/16 10:31:32;;;;;;;40.03;18.95;;;9.40;99.90;;;;;;5011996;28;20029;-74
2023/11/16 10:33:58;;;;;;;37.47;17.35;;;9.40;99.90;;;;;;5029175;28;20033;-75
2023/11/16 10:36:27;;;;;;;33.85;17.98;;;9.40;99.90;;;;;;5029614;28;20509;-74
2023/11/16 10:38:57;;;;;;;33.35;17.42;;;9.40;99.90;;;;;;5028928;28;20125;-74
2023/11/16 10:41:24;;;;;;;29.37;16.83;;;9.30;99.90;;;;;;5028211;28;20076;-74
2023/11/16 10:43:56;;;;;;;32.38;17.60;;;9.40;99.90;;;;;;4997818;28;20053;-74
2023/11/16 10:46:25;;;;;;;36.05;17.08;;;9.40;99.90;;;;;;5029561;28;20025;-75
2023/11/16 10:48:51;;;;;;;39.60;19.80;;;9.40;99.90;;;;;;5028561;28;20021;-74
2023/11/16 10:51:20;;;;;;;37.15;18.85;;;9.30;99.90;;;;;;5022131;28;20852;-74
2023/11/16 10:53:51;;;;;;;37.38;19.27;;;9.30;99.90;;;;;;5025313;28;20045;-74
2023/11/16 10:56:18;;;;;;;34.97;19.20;;;9.30;99.90;;;;;;5025015;28;20116;-74
2023/11/16 10:58:47;;;;;;;39.80;19.70;;;9.30;99.90;;;;;;5013847;28;20406;-74
2023/11/16 11:01:17;;;;;;;36.20;18.15;;;9.30;99.90;;;;;;5011285;28;20725;-74
2023/11/16 11:03:45;;;;;;;38.08;19.02;;;9.30;99.90;;;;;;5009187;28;20105;-74
2023/11/16 11:06:18;;;;;;;50.20;22.27;;;9.30;99.90;;;;;;5007216;28;20117;-74
2023/11/16 11:08:45;;;;;;;34.83;19.33;;;9.30;99.90;;;;;;5027726;28;20032;-74
2023/11/16 11:11:11;;;;;;;37.97;19.45;;;9.30;99.90;;;;;;5029020;28;20376;-74
2023/11/16 11:13:41;;;;;;;24.58;14.18;;;9.30;99.90;;;;;;5010010;28;20687;-74
2023/11/16 11:16:10;;;;;;;38.87;19.43;;;9.30;99.90;;;;;;5028164;28;20040;-74
2023/11/16 11:18:47;;;;;;;35.70;19.55;;;9.30;99.90;;;;;;5009280;28;20357;-73
2023/11/16 11:21:14;;;;;;;39.40;18.65;;;9.30;99.90;;;;;;5026988;28;20067;-74
2023/11/16 11:23:41;;;;;;;29.50;16.95;;;9.30;99.90;;;;;;5027311;28;20029;-74
2023/11/16 11:26:07;;;;;;;30.90;15.50;;;9.30;99.90;;;;;;5024217;28;20025;-74
2023/11/16 11:28:38;;;;;;;31.55;16.33;;;9.30;99.90;;;;;;5035812;28;20491;-74
2023/11/16 11:31:05;;;;;;;19.15;11.43;;;9.30;99.90;;;;;;5022523;28;20022;-74
2023/11/16 11:33:45;;;;;;;18.63;9.50;;;9.30;99.90;;;;;;5010565;28;20034;-74
2023/11/16 11:36:16;;;;;;;22.27;11.10;;;9.30;99.90;;;;;;5015686;28;20028;-75
2023/11/16 11:38:43;;;;;;;28.33;11.60;;;9.30;99.90;;;;;;5027569;28;20060;-75
2023/11/16 11:41:12;;;;;;;29.13;13.93;;;9.30;99.90;;;;;;5023695;28;20139;-75
2023/11/16 11:43:42;;;;;;;19.80;10.45;;;9.30;99.90;;;;;;5018668;28;20073;-75
2023/11/16 11:46:12;;;;;;;27.52;12.15;;;9.30;99.90;;;;;;5027056;28;20034;-74
2023/11/16 11:48:40;;;;;;;18.30;10.13;;;9.30;99.90;;;;;;5027826;28;20543;-75
2023/11/16 11:51:14;;;;;;;30.50;11.63;;;9.30;99.90;;;;;;5009445;28;20029;-75
2023/11/16 11:53:40;;;;;;;29.10;11.40;;;9.30;99.90;;;;;;5028105;28;20029;-75
2023/11/16 11:56:07;;;;;;;20.77;10.35;;;9.30;99.90;;;;;;5028053;28;20021;-73
2023/11/16 11:58:35;;;;;;;23.88;11.00;;;9.30;99.90;;;;;;5018358;28;20875;-74
2023/11/16 12:01:01;;;;;;;26.50;11.13;;;9.30;99.90;;;;;;5013555;28;20022;-74
2023/11/16 12:03:27;;;;;;;26.70;11.73;;;9.30;99.90;;;;;;5026451;28;20025;-74
2023/11/16 12:06:02;;;;;;;28.10;11.07;;;9.30;99.90;;;;;;5020916;28;20479;-75
2023/11/16 12:08:43;;;;;;;26.48;10.88;;;9.30;99.90;;;;;;5022959;28;20541;-74
2023/11/16 12:11:10;;;;;;;15.15;8.73;;;9.30;99.90;;;;;;5006092;28;20486;-74
2023/11/16 12:13:40;;;;;;;22.45;11.55;;;9.30;99.90;;;;;;5024543;28;20025;-74
2023/11/16 12:16:08;;;;;;;22.58;10.88;;;9.30;99.90;;;;;;5022517;28;20021;-74
2023/11/16 12:18:41;;;;;;;19.70;9.88;;;9.30;99.90;;;;;;5026827;28;20116;-74
2023/11/16 12:21:14;;;;;;;26.27;11.90;;;9.20;99.90;;;;;;5027818;28;20108;-74
2023/11/16 12:23:43;;;;;;;24.17;11.18;;;9.20;99.90;;;;;;5027053;28;20286;-74
2023/11/16 12:26:09;;;;;;;28.63;11.82;;;9.20;99.90;;;;;;5009781;28;20025;-74
2023/11/16 12:28:35;;;;;;;19.88;10.73;;;9.30;99.90;;;;;;5025679;28;20371;-74
2023/11/16 12:31:01;;;;;;;29.23;12.82;;;9.20;99.90;;;;;;5021755;28;20096;-77
2023/11/16 12:33:28;;;;;;;34.63;13.02;;;9.30;99.90;;;;;;5013620;28;20084;-74
2023/11/16 12:35:54;;;;;;;23.27;11.50;;;9.30;99.90;;;;;;5018117;28;20104;-74
2023/11/16 12:38:21;;;;;;;33.78;13.48;;;9.30;99.90;;;;;;5026501;28;20045;-74
2023/11/16 12:40:47;;;;;;;33.08;14.88;;;9.30;99.90;;;;;;5026955;28;20005;-74
2023/11/16 12:43:13;;;;;;;33.75;14.52;;;9.20;99.90;;;;;;5009178;28;20442;-74
2023/11/16 12:45:39;;;;;;;37.00;14.60;;;9.30;99.90;;;;;;5027403;28;20026;-73
2023/11/16 12:48:08;;;;;;;33.72;14.63;;;9.30;99.90;;;;;;5009404;28;20025;-74